sensor_id;sensor_type;location;lat;lon;timestamp;P1;durP1;ratioP1;P2;durP2;ratioP2
10410;SDS011;5251;52.112;8.606;2024-01-15T00:00:41;11.55;;;8.43;;
10410;SDS011;5251;52.112;8.606;2024-01-15T00:03:07;13.27;;;9.13;;
10410;SDS011;5251;52.112;8.606;2024-01-15T00:05:33;11.50;;;8.45;;
10410;SDS011;5251;52.112;8.606;2024-01-15T00:07:58;12.60;;;8.65;;
10410;SDS011;5251;52.112;8.606;2024-01-15T00:10:24;11.88;;;8.00;;
10410;SDS011;5251;52.112;8.606;2024-01-15T00:12:49;10.82;;;7.25;;
10410;SDS011;5251;52.112;8.606;2024-01-15T00:15:15;11.02;;;7.55;;
10410;SDS011;5251;52.112;8.606;2024-01-15T00:17:41;11.13;;;7.50;;
10410;SDS011;5251;52.112;8.606;2024-01-15T00:20:06;11.25;;;7.85;;
10410;SDS011;5251;52.112;8.606;2024-01-15T00:22:33;9.15;;;6.65;;
10410;SDS011;5251;52.112;8.606;2024-01-15T00:25:00;9.05;;;6.70;;
10410;SDS011;5251;52.112;8.606;2024-01-15T00:27:27;9.18;;;7.05;;
10410;SDS011;5251;52.112;8.606;2024-01-15T00:29:52;9.00;;;6.80;;
10410;SDS011;5251;52.112;8.606;2024-01-15T00:32:19;10.10;;;6.88;;
10410;SDS011;5251;52.112;8.606;2024-01-15T00:34:45;9.05;;;6.53;;
10410;SDS011;5251;52.112;8.606;2024-01-15T00:37:10;9.10;;;6.45;;
10410;SDS011;5251;52.112;8.606;2024-01-15T00:39:36;9.35;;;6.43;;
10410;SDS011;5251;52.112;8.606;2024-01-15T00:42:02;9.48;;;6.40;;
10410;SDS011;5251;52.112;8.606;2024-01-15T00:44:28;10.57;;;5.97;;
10410;SDS011;5251;52.112;8.606;2024-01-15T00:46:53;12.32;;;6.70;;
10410;SDS011;5251;52.112;8.606;2024-01-15T00:49:19;9.98;;;6.05;;
10410;SDS011;5251;52.112;8.606;2024-01-15T00:51:45;10.93;;;6.75;;
10410;SDS011;5251;52.112;8.606;2024-01-15T00:54:10;10.13;;;6.45;;
10410;SDS011;5251;52.112;8.606;2024-01-15T00:56:36;10.20;;;6.10;;
10410;SDS011;5251;52.112;8.606;2024-01-15T00:59:02;10.73;;;6.05;;
10410;SDS011;5251;52.112;8.606;2024-01-15T01:01:27;10.90;;;6.38;;
10410;SDS011;5251;52.112;8.606;2024-01-15T01:03:53;9.88;;;6.10;;
10410;SDS011;5251;52.112;8.606;2024-01-15T01:06:19;9.93;;;6.07;;
10410;SDS011;5251;52.112;8.606;2024-01-15T01:08:45;9.65;;;5.50;;
10410;SDS011;5251;52.112;8.606;2024-01-15T01:11:14;9.52;;;5.70;;
10410;SDS011;5251;52.112;8.606;2024-01-15T01:13:42;14.15;;;5.55;;
10410;SDS011;5251;52.112;8.606;2024-01-15T01:16:08;9.80;;;4.90;;
10410;SDS011;5251;52.112;8.606;2024-01-15T01:18:34;9.27;;;4.95;;
10410;SDS011;5251;52.112;8.606;2024-01-15T01:21:00;10.55;;;5.63;;
10410;SDS011;5251;52.112;8.606;2024-01-15T01:23:25;8.65;;;5.15;;
10410;SDS011;5251;52.112;8.606;2024-01-15T01:25:51;11.05;;;5.43;;
10410;SDS011;5251;52.112;8.606;2024-01-15T01:28:17;9.90;;;5.32;;
10410;SDS011;5251;52.112;8.606;2024-01-15T01:30:42;8.80;;;4.93;;
10410;SDS011;5251;52.112;8.606;2024-01-15T01:33:08;10.30;;;5.50;;
10410;SDS011;5251;52.112;8.606;2024-01-15T01:35:34;9.73;;;5.03;;
10410;SDS011;5251;52.112;8.606;2024-01-15T01:37:59;9.82;;;4.18;;
10410;SDS011;5251;52.112;8.606;2024-01-15T01:40:25;9.98;;;4.60;;
10410;SDS011;5251;52.112;8.606;2024-01-15T01:42:50;8.35;;;4.18;;
10410;SDS011;5251;52.112;8.606;2024-01-15T01:45:16;6.82;;;3.95;;
10410;SDS011;5251;52.112;8.606;2024-01-15T01:47:42;9.63;;;4.25;;
10410;SDS011;5251;52.112;8.606;2024-01-15T01:50:08;11.80;;;4.07;;
10410;SDS011;5251;52.112;8.606;2024-01-15T01:52:34;8.43;;;4.00;;
10410;SDS011;5251;52.112;8.606;2024-01-15T01:55:01;9.63;;;3.45;;
10410;SDS011;5251;52.112;8.606;2024-01-15T01:57:28;7.78;;;3.58;;
10410;SDS011;5251;52.112;8.606;2024-01-15T01:59:55;11.98;;;3.45;;
10410;SDS011;5251;52.112;8.606;2024-01-15T02:02:22;7.57;;;3.20;;
10410;SDS011;5251;52.112;8.606;2024-01-15T02:04:49;6.93;;;2.90;;
10410;SDS011;5251;52.112;8.606;2024-01-15T02:07:15;8.60;;;3.08;;
10410;SDS011;5251;52.112;8.606;2024-01-15T02:09:42;8.95;;;3.28;;
10410;SDS011;5251;52.112;8.606;2024-01-15T02:12:09;8.90;;;2.97;;
10410;SDS011;5251;52.112;8.606;2024-01-15T02:14:35;4.80;;;2.30;;
10410;SDS011;5251;52.112;8.606;2024-01-15T02:17:01;7.63;;;2.65;;
10410;SDS011;5251;52.112;8.606;2024-01-15T02:19:27;6.95;;;3.03;;
10410;SDS011;5251;52.112;8.606;2024-01-15T02:21:52;7.70;;;3.15;;
10410;SDS011;5251;52.112;8.606;2024-01-15T02:24:18;5.00;;;2.67;;
10410;SDS011;5251;52.112;8.606;2024-01-15T02:26:44;8.68;;;3.13;;
10410;SDS011;5251;52.112;8.606;2024-01-15T02:29:11;7.35;;;2.63;;
10410;SDS011;5251;52.112;8.606;2024-01-15T02:31:38;8.10;;;2.88;;
10410;SDS011;5251;52.112;8.606;2024-01-15T02:34:04;10.48;;;2.92;;
10410;SDS011;5251;52.112;8.606;2024-01-15T02:36:30;9.88;;;2.88;;
10410;SDS011;5251;52.112;8.606;2024-01-15T02:38:55;10.23;;;3.20;;
10410;SDS011;5251;52.112;8.606;2024-01-15T02:41:21;8.02;;;2.60;;
10410;SDS011;5251;52.112;8.606;2024-01-15T02:43:47;4.75;;;2.28;;
10410;SDS011;5251;52.112;8.606;2024-01-15T02:46:12;9.13;;;3.28;;
10410;SDS011;5251;52.112;8.606;2024-01-15T02:48:38;8.10;;;3.00;;
10410;SDS011;5251;52.112;8.606;2024-01-15T02:51:03;7.05;;;2.67;;
10410;SDS011;5251;52.112;8.606;2024-01-15T02:53:29;8.07;;;3.13;;
10410;SDS011;5251;52.112;8.606;2024-01-15T02:55:55;6.10;;;2.95;;
10410;SDS011;5251;52.112;8.606;2024-01-15T02:58:21;6.30;;;2.92;;
10410;SDS011;5251;52.112;8.606;2024-01-15T03:00:47;7.15;;;3.50;;
10410;SDS011;5251;52.112;8.606;2024-01-15T03:03:12;10.45;;;3.30;;
10410;SDS011;5251;52.112;8.606;2024-01-15T03:05:38;6.25;;;3.10;;
10410;SDS011;5251;52.112;8.606;2024-01-15T03:08:04;10.52;;;3.78;;
10410;SDS011;5251;52.112;8.606;2024-01-15T03:10:29;6.63;;;2.95;;
10410;SDS011;5251;52.112;8.606;2024-01-15T03:12:55;6.20;;;2.95;;
10410;SDS011;5251;52.112;8.606;2024-01-15T03:15:20;9.45;;;3.50;;
10410;SDS011;5251;52.112;8.606;2024-01-15T03:17:46;7.80;;;3.65;;
10410;SDS011;5251;52.112;8.606;2024-01-15T03:20:12;10.30;;;3.75;;
10410;SDS011;5251;52.112;8.606;2024-01-15T03:22:37;10.13;;;3.58;;
10410;SDS011;5251;52.112;8.606;2024-01-15T03:25:03;7.05;;;3.45;;
10410;SDS011;5251;52.112;8.606;2024-01-15T03:27:29;9.57;;;3.75;;
10410;SDS011;5251;52.112;8.606;2024-01-15T03:29:55;7.60;;;3.50;;
10410;SDS011;5251;52.112;8.606;2024-01-15T03:32:20;8.38;;;3.78;;
10410;SDS011;5251;52.112;8.606;2024-01-15T03:34:46;8.07;;;4.47;;
10410;SDS011;5251;52.112;8.606;2024-01-15T03:37:13;9.07;;;4.80;;
10410;SDS011;5251;52.112;8.606;2024-01-15T03:39:39;10.98;;;4.75;;
10410;SDS011;5251;52.112;8.606;2024-01-15T03:42:04;10.43;;;4.93;;
10410;SDS011;5251;52.112;8.606;2024-01-15T03:44:31;10.35;;;4.40;;
10410;SDS011;5251;52.112;8.606;2024-01-15T03:46:56;9.50;;;4.75;;
10410;SDS011;5251;52.112;8.606;2024-01-15T03:49:23;9.02;;;4.80;;
10410;SDS011;5251;52.112;8.606;2024-01-15T03:51:48;9.52;;;4.60;;
10410;SDS011;5251;52.112;8.606;2024-01-15T03:54:14;10.73;;;4.93;;
10410;SDS011;5251;52.112;8.606;2024-01-15T03:56:39;10.27;;;5.03;;
10410;SDS011;5251;52.112;8.606;2024-01-15T03:59:05;11.20;;;5.00;;
10410;SDS011;5251;52.112;8.606;2024-01-15T04:01:31;8.45;;;4.68;;
10410;SDS011;5251;52.112;8.606;2024-01-15T04:03:56;9.30;;;4.78;;
10410;SDS011;5251;52.112;8.606;2024-01-15T04:06:22;8.15;;;4.95;;
10410;SDS011;5251;52.112;8.606;2024-01-15T04:08:47;10.73;;;4.57;;
10410;SDS011;5251;52.112;8.606;2024-01-15T04:11:13;9.55;;;4.32;;
10410;SDS011;5251;52.112;8.606;2024-01-15T04:13:39;11.02;;;4.15;;
10410;SDS011;5251;52.112;8.606;2024-01-15T04:16:04;11.25;;;4.65;;
10410;SDS011;5251;52.112;8.606;2024-01-15T04:18:30;9.65;;;4.20;;
10410;SDS011;5251;52.112;8.606;2024-01-15T04:20:55;13.07;;;4.53;;
10410;SDS011;5251;52.112;8.606;2024-01-15T04:23:21;10.73;;;4.47;;
10410;SDS011;5251;52.112;8.606;2024-01-15T04:25:47;8.98;;;3.78;;
10410;SDS011;5251;52.112;8.606;2024-01-15T04:28:12;9.98;;;3.78;;
10410;SDS011;5251;52.112;8.606;2024-01-15T04:30:38;7.60;;;3.67;;
10410;SDS011;5251;52.112;8.606;2024-01-15T04:33:04;8.50;;;4.18;;
10410;SDS011;5251;52.112;8.606;2024-01-15T04:35:32;9.68;;;3.88;;
10410;SDS011;5251;52.112;8.606;2024-01-15T04:37:59;9.52;;;3.78;;
10410;SDS011;5251;52.112;8.606;2024-01-15T04:40:24;10.05;;;3.72;;
10410;SDS011;5251;52.112;8.606;2024-01-15T04:42:52;9.13;;;3.67;;
10410;SDS011;5251;52.112;8.606;2024-01-15T04:45:19;7.00;;;3.28;;
10410;SDS011;5251;52.112;8.606;2024-01-15T04:47:47;8.23;;;3.58;;
10410;SDS011;5251;52.112;8.606;2024-01-15T04:50:13;9.07;;;3.58;;
10410;SDS011;5251;52.112;8.606;2024-01-15T04:52:39;7.95;;;3.30;;
10410;SDS011;5251;52.112;8.606;2024-01-15T04:55:04;8.35;;;3.40;;
10410;SDS011;5251;52.112;8.606;2024-01-15T04:57:30;7.22;;;3.33;;
10410;SDS011;5251;52.112;8.606;2024-01-15T04:59:56;6.28;;;2.70;;
10410;SDS011;5251;52.112;8.606;2024-01-15T05:02:21;7.30;;;2.85;;
10410;SDS011;5251;52.112;8.606;2024-01-15T05:04:47;6.55;;;2.90;;
10410;SDS011;5251;52.112;8.606;2024-01-15T05:07:13;6.47;;;2.75;;
10410;SDS011;5251;52.112;8.606;2024-01-15T05:09:38;7.28;;;3.10;;
10410;SDS011;5251;52.112;8.606;2024-01-15T05:12:04;7.70;;;3.25;;
10410;SDS011;5251;52.112;8.606;2024-01-15T05:14:30;8.73;;;3.70;;
10410;SDS011;5251;52.112;8.606;2024-01-15T05:16:55;10.70;;;3.50;;
10410;SDS011;5251;52.112;8.606;2024-01-15T05:19:21;11.23;;;3.28;;
10410;SDS011;5251;52.112;8.606;2024-01-15T05:21:46;6.15;;;2.75;;
10410;SDS011;5251;52.112;8.606;2024-01-15T05:24:12;7.00;;;3.10;;
10410;SDS011;5251;52.112;8.606;2024-01-15T05:26:37;6.93;;;2.75;;
10410;SDS011;5251;52.112;8.606;2024-01-15T05:29:04;6.45;;;3.20;;
10410;SDS011;5251;52.112;8.606;2024-01-15T05:31:29;6.40;;;3.20;;
10410;SDS011;5251;52.112;8.606;2024-01-15T05:33:55;8.65;;;3.40;;
10410;SDS011;5251;52.112;8.606;2024-01-15T05:36:21;6.47;;;3.33;;
10410;SDS011;5251;52.112;8.606;2024-01-15T05:38:46;7.60;;;3.30;;
10410;SDS011;5251;52.112;8.606;2024-01-15T05:41:13;7.75;;;3.20;;
10410;SDS011;5251;52.112;8.606;2024-01-15T05:43:39;8.00;;;3.55;;
10410;SDS011;5251;52.112;8.606;2024-01-15T05:46:04;5.10;;;3.22;;
10410;SDS011;5251;52.112;8.606;2024-01-15T05:48:30;5.07;;;2.92;;
10410;SDS011;5251;52.112;8.606;2024-01-15T05:50:55;9.13;;;2.90;;
10410;SDS011;5251;52.112;8.606;2024-01-15T05:53:21;4.72;;;2.45;;
10410;SDS011;5251;52.112;8.606;2024-01-15T05:55:47;4.55;;;2.60;;
10410;SDS011;5251;52.112;8.606;2024-01-15T05:58:12;5.50;;;2.30;;
10410;SDS011;5251;52.112;8.606;2024-01-15T06:00:38;5.70;;;2.30;;
10410;SDS011;5251;52.112;8.606;2024-01-15T06:03:03;6.72;;;2.33;;
10410;SDS011;5251;52.112;8.606;2024-01-15T06:05:29;4.35;;;2.38;;
10410;SDS011;5251;52.112;8.606;2024-01-15T06:07:55;4.35;;;2.20;;
10410;SDS011;5251;52.112;8.606;2024-01-15T06:10:20;3.70;;;1.98;;
10410;SDS011;5251;52.112;8.606;2024-01-15T06:12:46;4.53;;;1.98;;
10410;SDS011;5251;52.112;8.606;2024-01-15T06:15:12;5.65;;;1.85;;
10410;SDS011;5251;52.112;8.606;2024-01-15T06:17:38;7.95;;;2.22;;
10410;SDS011;5251;52.112;8.606;2024-01-15T06:20:03;5.63;;;2.00;;
10410;SDS011;5251;52.112;8.606;2024-01-15T06:22:30;3.65;;;2.08;;
10410;SDS011;5251;52.112;8.606;2024-01-15T06:24:55;4.20;;;1.80;;
10410;SDS011;5251;52.112;8.606;2024-01-15T06:27:21;4.50;;;2.17;;
10410;SDS011;5251;52.112;8.606;2024-01-15T06:29:47;5.25;;;2.10;;
10410;SDS011;5251;52.112;8.606;2024-01-15T06:32:13;6.07;;;2.25;;
10410;SDS011;5251;52.112;8.606;2024-01-15T06:34:38;7.00;;;2.50;;
10410;SDS011;5251;52.112;8.606;2024-01-15T06:37:04;5.82;;;2.75;;
10410;SDS011;5251;52.112;8.606;2024-01-15T06:39:30;5.93;;;2.38;;
10410;SDS011;5251;52.112;8.606;2024-01-15T06:41:55;4.85;;;2.45;;
10410;SDS011;5251;52.112;8.606;2024-01-15T06:44:21;10.60;;;3.47;;
10410;SDS011;5251;52.112;8.606;2024-01-15T06:46:47;6.43;;;2.90;;
10410;SDS011;5251;52.112;8.606;2024-01-15T06:49:12;7.00;;;3.05;;
10410;SDS011;5251;52.112;8.606;2024-01-15T06:51:38;5.35;;;2.83;;
10410;SDS011;5251;52.112;8.606;2024-01-15T06:54:04;6.38;;;2.95;;
10410;SDS011;5251;52.112;8.606;2024-01-15T06:56:31;6.25;;;3.15;;
10410;SDS011;5251;52.112;8.606;2024-01-15T06:58:57;6.60;;;2.85;;
10410;SDS011;5251;52.112;8.606;2024-01-15T07:01:22;4.95;;;3.22;;
10410;SDS011;5251;52.112;8.606;2024-01-15T07:03:48;7.68;;;2.90;;
10410;SDS011;5251;52.112;8.606;2024-01-15T07:06:14;4.38;;;2.67;;
10410;SDS011;5251;52.112;8.606;2024-01-15T07:08:39;5.22;;;2.85;;
10410;SDS011;5251;52.112;8.606;2024-01-15T07:11:06;6.07;;;2.80;;
10410;SDS011;5251;52.112;8.606;2024-01-15T07:13:32;4.53;;;2.67;;
10410;SDS011;5251;52.112;8.606;2024-01-15T07:15:58;4.65;;;2.33;;
10410;SDS011;5251;52.112;8.606;2024-01-15T07:18:24;4.28;;;2.50;;
10410;SDS011;5251;52.112;8.606;2024-01-15T07:20:50;3.42;;;2.20;;
10410;SDS011;5251;52.112;8.606;2024-01-15T07:23:16;3.55;;;2.60;;
10410;SDS011;5251;52.112;8.606;2024-01-15T07:25:42;3.10;;;2.35;;
10410;SDS011;5251;52.112;8.606;2024-01-15T07:28:08;4.68;;;2.40;;
10410;SDS011;5251;52.112;8.606;2024-01-15T07:30:33;5.43;;;2.50;;
10410;SDS011;5251;52.112;8.606;2024-01-15T07:32:59;6.68;;;2.85;;
10410;SDS011;5251;52.112;8.606;2024-01-15T07:35:24;7.45;;;2.92;;
10410;SDS011;5251;52.112;8.606;2024-01-15T07:37:50;7.22;;;2.70;;
10410;SDS011;5251;52.112;8.606;2024-01-15T07:40:16;7.97;;;3.08;;
10410;SDS011;5251;52.112;8.606;2024-01-15T07:42:41;7.68;;;3.30;;
10410;SDS011;5251;52.112;8.606;2024-01-15T07:45:08;5.07;;;2.40;;
10410;SDS011;5251;52.112;8.606;2024-01-15T07:47:36;4.20;;;2.38;;
10410;SDS011;5251;52.112;8.606;2024-01-15T07:50:01;5.88;;;2.35;;
10410;SDS011;5251;52.112;8.606;2024-01-15T07:52:27;5.53;;;2.33;;
10410;SDS011;5251;52.112;8.606;2024-01-15T07:54:53;10.13;;;2.83;;
10410;SDS011;5251;52.112;8.606;2024-01-15T07:57:20;6.40;;;2.55;;
10410;SDS011;5251;52.112;8.606;2024-01-15T07:59:45;5.13;;;2.75;;
10410;SDS011;5251;52.112;8.606;2024-01-15T08:02:11;5.95;;;2.97;;
10410;SDS011;5251;52.112;8.606;2024-01-15T08:04:37;6.72;;;2.55;;
10410;SDS011;5251;52.112;8.606;2024-01-15T08:07:03;6.22;;;2.60;;
10410;SDS011;5251;52.112;8.606;2024-01-15T08:09:30;4.90;;;2.80;;
10410;SDS011;5251;52.112;8.606;2024-01-15T08:11:56;8.18;;;3.13;;
10410;SDS011;5251;52.112;8.606;2024-01-15T08:14:22;9.10;;;3.10;;
10410;SDS011;5251;52.112;8.606;2024-01-15T08:16:47;3.13;;;2.30;;
10410;SDS011;5251;52.112;8.606;2024-01-15T08:19:13;4.72;;;2.60;;
10410;SDS011;5251;52.112;8.606;2024-01-15T08:21:39;9.40;;;2.72;;
10410;SDS011;5251;52.112;8.606;2024-01-15T08:24:05;2.92;;;2.50;;
10410;SDS011;5251;52.112;8.606;2024-01-15T08:26:31;5.25;;;2.50;;
10410;SDS011;5251;52.112;8.606;2024-01-15T08:28:57;6.03;;;2.38;;
10410;SDS011;5251;52.112;8.606;2024-01-15T08:31:23;3.60;;;2.13;;
10410;SDS011;5251;52.112;8.606;2024-01-15T08:33:49;5.32;;;2.17;;
10410;SDS011;5251;52.112;8.606;2024-01-15T08:36:15;3.72;;;2.03;;
10410;SDS011;5251;52.112;8.606;2024-01-15T08:38:40;4.88;;;2.20;;
10410;SDS011;5251;52.112;8.606;2024-01-15T08:41:06;4.43;;;2.00;;
10410;SDS011;5251;52.112;8.606;2024-01-15T08:43:33;4.55;;;1.92;;
10410;SDS011;5251;52.112;8.606;2024-01-15T08:45:59;3.00;;;1.90;;
10410;SDS011;5251;52.112;8.606;2024-01-15T08:48:25;2.95;;;1.90;;
10410;SDS011;5251;52.112;8.606;2024-01-15T08:50:54;2.13;;;1.92;;
10410;SDS011;5251;52.112;8.606;2024-01-15T08:53:21;3.28;;;1.90;;
10410;SDS011;5251;52.112;8.606;2024-01-15T08:55:47;2.80;;;1.90;;
10410;SDS011;5251;52.112;8.606;2024-01-15T08:58:13;2.20;;;2.00;;
10410;SDS011;5251;52.112;8.606;2024-01-15T09:00:39;3.17;;;2.15;;
10410;SDS011;5251;52.112;8.606;2024-01-15T09:03:05;2.55;;;2.22;;
10410;SDS011;5251;52.112;8.606;2024-01-15T09:05:31;4.50;;;2.30;;
10410;SDS011;5251;52.112;8.606;2024-01-15T09:07:56;3.67;;;2.30;;
10410;SDS011;5251;52.112;8.606;2024-01-15T09:10:22;2.67;;;2.33;;
10410;SDS011;5251;52.112;8.606;2024-01-15T09:12:48;2.40;;;2.20;;
10410;SDS011;5251;52.112;8.606;2024-01-15T09:15:16;3.58;;;2.10;;
10410;SDS011;5251;52.112;8.606;2024-01-15T09:17:42;3.80;;;2.90;;
10410;SDS011;5251;52.112;8.606;2024-01-15T09:20:08;2.90;;;2.40;;
10410;SDS011;5251;52.112;8.606;2024-01-15T09:22:34;4.20;;;2.40;;
10410;SDS011;5251;52.112;8.606;2024-01-15T09:25:02;3.38;;;2.72;;
10410;SDS011;5251;52.112;8.606;2024-01-15T09:27:29;3.03;;;2.67;;
10410;SDS011;5251;52.112;8.606;2024-01-15T09:29:54;2.85;;;2.58;;
10410;SDS011;5251;52.112;8.606;2024-01-15T09:32:20;3.45;;;2.58;;
10410;SDS011;5251;52.112;8.606;2024-01-15T09:34:46;3.58;;;2.70;;
10410;SDS011;5251;52.112;8.606;2024-01-15T09:37:12;2.78;;;2.58;;
10410;SDS011;5251;52.112;8.606;2024-01-15T09:39:39;3.63;;;3.10;;
10410;SDS011;5251;52.112;8.606;2024-01-15T09:42:05;3.28;;;2.58;;
10410;SDS011;5251;52.112;8.606;2024-01-15T09:44:30;3.30;;;2.80;;
10410;SDS011;5251;52.112;8.606;2024-01-15T09:46:57;4.05;;;2.63;;
10410;SDS011;5251;52.112;8.606;2024-01-15T09:49:23;4.55;;;3.10;;
10410;SDS011;5251;52.112;8.606;2024-01-15T09:51:48;4.25;;;2.63;;
10410;SDS011;5251;52.112;8.606;2024-01-15T09:54:15;3.58;;;2.75;;
10410;SDS011;5251;52.112;8.606;2024-01-15T09:56:45;6.72;;;3.00;;
10410;SDS011;5251;52.112;8.606;2024-01-15T09:59:14;4.20;;;3.00;;
10410;SDS011;5251;52.112;8.606;2024-01-15T10:01:46;6.13;;;3.45;;
10410;SDS011;5251;52.112;8.606;2024-01-15T10:04:15;6.63;;;3.00;;
10410;SDS011;5251;52.112;8.606;2024-01-15T10:06:44;8.30;;;2.90;;
10410;SDS011;5251;52.112;8.606;2024-01-15T10:09:12;6.88;;;3.03;;
10410;SDS011;5251;52.112;8.606;2024-01-15T10:11:41;6.97;;;2.70;;
10410;SDS011;5251;52.112;8.606;2024-01-15T10:14:08;8.45;;;3.30;;
10410;SDS011;5251;52.112;8.606;2024-01-15T10:16:37;5.00;;;2.70;;
10410;SDS011;5251;52.112;8.606;2024-01-15T10:19:03;5.28;;;2.70;;
10410;SDS011;5251;52.112;8.606;2024-01-15T10:21:31;6.00;;;3.05;;
10410;SDS011;5251;52.112;8.606;2024-01-15T10:23:59;7.80;;;2.72;;
10410;SDS011;5251;52.112;8.606;2024-01-15T10:26:26;5.40;;;2.33;;
10410;SDS011;5251;52.112;8.606;2024-01-15T10:28:52;6.55;;;2.97;;
10410;SDS011;5251;52.112;8.606;2024-01-15T10:31:17;5.15;;;2.40;;
10410;SDS011;5251;52.112;8.606;2024-01-15T10:33:44;5.88;;;2.75;;
10410;SDS011;5251;52.112;8.606;2024-01-15T10:36:10;5.35;;;2.35;;
10410;SDS011;5251;52.112;8.606;2024-01-15T10:38:38;5.05;;;2.35;;
10410;SDS011;5251;52.112;8.606;2024-01-15T10:41:04;6.40;;;2.80;;
10410;SDS011;5251;52.112;8.606;2024-01-15T10:43:30;4.22;;;2.42;;
10410;SDS011;5251;52.112;8.606;2024-01-15T10:45:55;4.63;;;2.15;;
10410;SDS011;5251;52.112;8.606;2024-01-15T10:48:22;5.32;;;2.17;;
10410;SDS011;5251;52.112;8.606;2024-01-15T10:50:47;10.27;;;2.85;;
10410;SDS011;5251;52.112;8.606;2024-01-15T10:53:14;6.57;;;2.10;;
10410;SDS011;5251;52.112;8.606;2024-01-15T10:55:41;4.25;;;2.40;;
10410;SDS011;5251;52.112;8.606;2024-01-15T10:58:07;4.90;;;2.00;;
10410;SDS011;5251;52.112;8.606;2024-01-15T11:00:37;3.80;;;2.17;;
10410;SDS011;5251;52.112;8.606;2024-01-15T11:03:04;7.47;;;2.50;;
10410;SDS011;5251;52.112;8.606;2024-01-15T11:05:37;7.40;;;2.40;;
10410;SDS011;5251;52.112;8.606;2024-01-15T11:08:12;5.05;;;2.20;;
10410;SDS011;5251;52.112;8.606;2024-01-15T11:10:46;5.03;;;1.98;;
10410;SDS011;5251;52.112;8.606;2024-01-15T11:13:20;3.35;;;2.00;;
10410;SDS011;5251;52.112;8.606;2024-01-15T11:18:35;4.40;;;1.90;;
10410;SDS011;5251;52.112;8.606;2024-01-15T11:23:47;3.95;;;2.00;;
10410;SDS011;5251;52.112;8.606;2024-01-15T11:26:27;6.38;;;2.00;;
10410;SDS011;5251;52.112;8.606;2024-01-15T11:28:56;6.88;;;1.92;;
10410;SDS011;5251;52.112;8.606;2024-01-15T11:31:29;4.97;;;1.92;;
10410;SDS011;5251;52.112;8.606;2024-01-15T11:34:04;5.35;;;2.15;;
10410;SDS011;5251;52.112;8.606;2024-01-15T11:42:00;5.40;;;2.00;;
10410;SDS011;5251;52.112;8.606;2024-01-15T11:44:30;6.20;;;2.38;;
10410;SDS011;5251;52.112;8.606;2024-01-15T11:47:00;4.57;;;1.92;;
10410;SDS011;5251;52.112;8.606;2024-01-15T11:52:17;4.30;;;2.33;;
10410;SDS011;5251;52.112;8.606;2024-01-15T11:54:50;4.15;;;2.00;;
10410;SDS011;5251;52.112;8.606;2024-01-15T12:00:08;4.25;;;1.80;;
10410;SDS011;5251;52.112;8.606;2024-01-15T12:02:35;3.47;;;1.70;;
10410;SDS011;5251;52.112;8.606;2024-01-15T12:05:01;4.90;;;2.13;;
10410;SDS011;5251;52.112;8.606;2024-01-15T12:07:26;4.78;;;2.15;;
10410;SDS011;5251;52.112;8.606;2024-01-15T12:09:52;5.25;;;2.00;;
10410;SDS011;5251;52.112;8.606;2024-01-15T12:12:21;4.85;;;2.00;;
10410;SDS011;5251;52.112;8.606;2024-01-15T12:14:52;4.70;;;2.03;;
10410;SDS011;5251;52.112;8.606;2024-01-15T12:17:18;4.68;;;2.22;;
10410;SDS011;5251;52.112;8.606;2024-01-15T12:19:43;3.72;;;1.98;;
10410;SDS011;5251;52.112;8.606;2024-01-15T12:22:09;5.30;;;2.20;;
10410;SDS011;5251;52.112;8.606;2024-01-15T12:24:35;3.78;;;2.33;;
10410;SDS011;5251;52.112;8.606;2024-01-15T12:27:01;4.70;;;2.83;;
10410;SDS011;5251;52.112;8.606;2024-01-15T12:29:27;3.88;;;2.22;;
10410;SDS011;5251;52.112;8.606;2024-01-15T12:31:53;3.30;;;2.10;;
10410;SDS011;5251;52.112;8.606;2024-01-15T12:34:18;3.63;;;2.10;;
10410;SDS011;5251;52.112;8.606;2024-01-15T12:36:48;4.80;;;1.92;;
10410;SDS011;5251;52.112;8.606;2024-01-15T12:39:13;6.80;;;2.35;;
10410;SDS011;5251;52.112;8.606;2024-01-15T12:41:40;4.18;;;1.80;;
10410;SDS011;5251;52.112;8.606;2024-01-15T12:44:06;3.10;;;1.90;;
10410;SDS011;5251;52.112;8.606;2024-01-15T12:46:32;3.10;;;1.73;;
10410;SDS011;5251;52.112;8.606;2024-01-15T12:48:58;3.10;;;2.10;;
10410;SDS011;5251;52.112;8.606;2024-01-15T12:51:26;3.45;;;1.80;;
10410;SDS011;5251;52.112;8.606;2024-01-15T12:53:53;6.18;;;2.20;;
10410;SDS011;5251;52.112;8.606;2024-01-15T12:56:18;3.65;;;1.85;;
10410;SDS011;5251;52.112;8.606;2024-01-15T12:58:44;5.78;;;2.22;;
10410;SDS011;5251;52.112;8.606;2024-01-15T13:01:09;4.05;;;2.20;;
10410;SDS011;5251;52.112;8.606;2024-01-15T13:03:35;3.17;;;1.95;;
10410;SDS011;5251;52.112;8.606;2024-01-15T13:06:01;3.75;;;2.28;;
10410;SDS011;5251;52.112;8.606;2024-01-15T13:08:26;5.20;;;2.30;;
10410;SDS011;5251;52.112;8.606;2024-01-15T13:10:54;5.50;;;2.08;;
10410;SDS011;5251;52.112;8.606;2024-01-15T13:13:22;4.45;;;2.45;;
10410;SDS011;5251;52.112;8.606;2024-01-15T13:15:47;5.25;;;2.22;;
10410;SDS011;5251;52.112;8.606;2024-01-15T13:18:13;5.72;;;2.05;;
10410;SDS011;5251;52.112;8.606;2024-01-15T13:20:39;5.68;;;2.10;;
10410;SDS011;5251;52.112;8.606;2024-01-15T13:23:05;5.70;;;2.08;;
10410;SDS011;5251;52.112;8.606;2024-01-15T13:25:31;3.47;;;1.88;;
10410;SDS011;5251;52.112;8.606;2024-01-15T13:27:57;3.10;;;1.60;;
10410;SDS011;5251;52.112;8.606;2024-01-15T13:30:23;4.97;;;1.85;;
10410;SDS011;5251;52.112;8.606;2024-01-15T13:32:48;2.88;;;1.70;;
10410;SDS011;5251;52.112;8.606;2024-01-15T13:35:14;2.53;;;1.80;;
10410;SDS011;5251;52.112;8.606;2024-01-15T13:37:40;3.75;;;1.50;;
10410;SDS011;5251;52.112;8.606;2024-01-15T13:40:08;3.85;;;1.83;;
10410;SDS011;5251;52.112;8.606;2024-01-15T13:42:35;3.25;;;1.77;;
10410;SDS011;5251;52.112;8.606;2024-01-15T13:45:04;3.72;;;2.15;;
10410;SDS011;5251;52.112;8.606;2024-01-15T13:47:31;4.68;;;2.05;;
10410;SDS011;5251;52.112;8.606;2024-01-15T13:49:57;3.83;;;1.63;;
10410;SDS011;5251;52.112;8.606;2024-01-15T13:52:23;4.40;;;1.70;;
10410;SDS011;5251;52.112;8.606;2024-01-15T13:54:48;7.00;;;2.72;;
10410;SDS011;5251;52.112;8.606;2024-01-15T13:57:14;5.13;;;1.92;;
10410;SDS011;5251;52.112;8.606;2024-01-15T13:59:40;3.05;;;1.80;;
10410;SDS011;5251;52.112;8.606;2024-01-15T14:02:05;2.60;;;1.70;;
10410;SDS011;5251;52.112;8.606;2024-01-15T14:04:31;3.97;;;2.10;;
10410;SDS011;5251;52.112;8.606;2024-01-15T14:06:57;5.05;;;1.60;;
10410;SDS011;5251;52.112;8.606;2024-01-15T14:09:22;2.95;;;1.50;;
10410;SDS011;5251;52.112;8.606;2024-01-15T14:11:48;2.85;;;1.90;;
10410;SDS011;5251;52.112;8.606;2024-01-15T14:14:14;3.95;;;1.67;;
10410;SDS011;5251;52.112;8.606;2024-01-15T14:16:40;3.53;;;1.50;;
10410;SDS011;5251;52.112;8.606;2024-01-15T14:19:07;2.78;;;1.60;;
10410;SDS011;5251;52.112;8.606;2024-01-15T14:21:34;1.73;;;1.20;;
10410;SDS011;5251;52.112;8.606;2024-01-15T14:24:00;2.53;;;1.23;;
10410;SDS011;5251;52.112;8.606;2024-01-15T14:26:26;4.43;;;1.50;;
10410;SDS011;5251;52.112;8.606;2024-01-15T14:28:52;2.40;;;1.55;;
10410;SDS011;5251;52.112;8.606;2024-01-15T14:31:19;3.67;;;1.85;;
10410;SDS011;5251;52.112;8.606;2024-01-15T14:33:45;4.22;;;1.65;;
10410;SDS011;5251;52.112;8.606;2024-01-15T14:36:11;2.50;;;1.70;;
10410;SDS011;5251;52.112;8.606;2024-01-15T14:38:36;1.98;;;1.60;;
10410;SDS011;5251;52.112;8.606;2024-01-15T14:41:02;3.47;;;1.60;;
10410;SDS011;5251;52.112;8.606;2024-01-15T14:43:29;2.47;;;1.80;;
10410;SDS011;5251;52.112;8.606;2024-01-15T14:45:54;2.28;;;1.40;;
10410;SDS011;5251;52.112;8.606;2024-01-15T14:48:20;1.92;;;1.27;;
10410;SDS011;5251;52.112;8.606;2024-01-15T14:50:45;2.45;;;1.60;;
10410;SDS011;5251;52.112;8.606;2024-01-15T14:53:11;1.83;;;1.30;;
10410;SDS011;5251;52.112;8.606;2024-01-15T14:55:37;3.42;;;1.60;;
10410;SDS011;5251;52.112;8.606;2024-01-15T14:58:02;2.25;;;1.60;;
10410;SDS011;5251;52.112;8.606;2024-01-15T15:00:28;3.03;;;1.92;;
10410;SDS011;5251;52.112;8.606;2024-01-15T15:02:54;2.20;;;1.67;;
10410;SDS011;5251;52.112;8.606;2024-01-15T15:05:19;2.03;;;1.50;;
10410;SDS011;5251;52.112;8.606;2024-01-15T15:07:45;2.70;;;1.95;;
10410;SDS011;5251;52.112;8.606;2024-01-15T15:10:10;2.55;;;1.70;;